BKB6 KRNO-KDMN
Flight info
| Callsign | BKB6 |
|---|---|
| Flight time | N/A |
| Altitude | 35000 |
| Route | YERIN J92 PRFUM Q13 DRK J231 NABOB Q13 VERNO J86 GREBE |
| Aircraft | RJ1H/M-SDFGIRWY/LB1 |
Departure
| Time | 2026-05-01 13:28 |
|---|---|
| Airport | Reno Tahoe International Airport (KRNO) |
Arrival
| Time | N/A |
|---|---|
| Airport | Deming Municipal Airport (KDMN) |
| Time | Latitude | Longitude | Altitude | Speed | Heading |
|---|---|---|---|---|---|
| 2026-05-01 13:21 | 39.86883 | -119.70221 | 4342 ft | 0 kts | 132° |
| 2026-05-01 13:26 | 39.86882 | -119.70219 | 4342 ft | 0 kts | 127° |
| 2026-05-01 13:26 | 39.86882 | -119.70216 | 4342 ft | 1 kts | 102° |
| 2026-05-01 13:26 | 39.86897 | -119.70200 | 4344 ft | 6 kts | 12° |
| 2026-05-01 13:26 | 39.86953 | -119.70199 | 4345 ft | 10 kts | 360° |
| 2026-05-01 13:27 | 39.87024 | -119.70217 | 4341 ft | 9 kts | 10° |
| 2026-05-01 13:27 | 39.87050 | -119.70180 | 4340 ft | 4 kts | 139° |
| 2026-05-01 13:27 | 39.86932 | -119.70176 | 4345 ft | 47 kts | 180° |
| 2026-05-01 13:28 | 39.85447 | -119.70193 | 4493 ft | 146 kts | 179° |
| 2026-05-01 13:28 | 39.84409 | -119.70193 | 5040 ft | 150 kts | 181° |
| 2026-05-01 13:29 | 39.82232 | -119.69814 | 6150 ft | 164 kts | 170° |
| 2026-05-01 13:29 | 39.79956 | -119.69506 | 7262 ft | 169 kts | 169° |
| 2026-05-01 13:30 | 39.74227 | -119.66671 | 8913 ft | 272 kts | 146° |
| 2026-05-01 13:31 | 39.71315 | -119.64114 | 9199 ft | 316 kts | 147° |
| 2026-05-01 13:31 | 39.65859 | -119.59347 | 9644 ft | 333 kts | 139° |
| 2026-05-01 13:32 | 39.62466 | -119.55440 | 9792 ft | 306 kts | 135° |
| 2026-05-01 13:33 | 39.58159 | -119.50077 | 9732 ft | 271 kts | 133° |
| 2026-05-01 13:33 | 39.55637 | -119.46438 | 9425 ft | 264 kts | 129° |
| 2026-05-01 13:34 | 39.53360 | -119.42689 | 9052 ft | 263 kts | 122° |
| 2026-05-01 13:34 | 39.51224 | -119.39042 | 9216 ft | 247 kts | 135° |
| 2026-05-01 13:35 | 39.48350 | -119.36731 | 9206 ft | 251 kts | 156° |
| 2026-05-01 13:35 | 39.46690 | -119.35855 | 8779 ft | 264 kts | 155° |
| 2026-05-01 13:35 | 39.43347 | -119.33963 | 8857 ft | 259 kts | 154° |
| 2026-05-01 13:36 | 39.41733 | -119.33011 | 9139 ft | 252 kts | 153° |
| 2026-05-01 13:36 | 39.40181 | -119.31972 | 9284 ft | 251 kts | 149° |
| 2026-05-01 13:36 | 39.36813 | -119.30401 | 8948 ft | 277 kts | 177° |
| 2026-05-01 13:37 | 39.34917 | -119.30177 | 9097 ft | 270 kts | 163° |
| 2026-05-01 13:37 | 39.33243 | -119.29066 | 8936 ft | 275 kts | 146° |
| 2026-05-01 13:37 | 39.31595 | -119.27776 | 8916 ft | 278 kts | 148° |
| 2026-05-01 13:37 | 39.29900 | -119.26501 | 8766 ft | 285 kts | 148° |
| 2026-05-01 13:38 | 39.26479 | -119.23806 | 8612 ft | 291 kts | 148° |
| 2026-05-01 13:38 | 39.24793 | -119.22478 | 8973 ft | 277 kts | 144° |
| 2026-05-01 13:38 | 39.23198 | -119.21141 | 9163 ft | 272 kts | 148° |
| 2026-05-01 13:39 | 39.21692 | -119.19843 | 9633 ft | 255 kts | 141° |
| 2026-05-01 13:39 | 39.20328 | -119.18366 | 9666 ft | 258 kts | 136° |
| 2026-05-01 13:39 | 39.18998 | -119.16765 | 9567 ft | 265 kts | 135° |
| 2026-05-01 13:39 | 39.17660 | -119.15067 | 9377 ft | 275 kts | 135° |
| 2026-05-01 13:40 | 39.16252 | -119.13385 | 9414 ft | 276 kts | 137° |
| 2026-05-01 13:40 | 39.14893 | -119.11764 | 9966 ft | 254 kts | 135° |
| 2026-05-01 13:40 | 39.13627 | -119.10291 | 10407 ft | 242 kts | 139° |
| 2026-05-01 13:40 | 39.12292 | -119.08957 | 10593 ft | 236 kts | 143° |
| 2026-05-01 13:41 | 39.10990 | -119.07774 | 10980 ft | 228 kts | 142° |
| 2026-05-01 13:41 | 39.09718 | -119.06500 | 10854 ft | 241 kts | 139° |
| 2026-05-01 13:41 | 39.08434 | -119.05021 | 10710 ft | 253 kts | 134° |
| 2026-05-01 13:41 | 39.07166 | -119.03375 | 10544 ft | 265 kts | 131° |
| 2026-05-01 13:42 | 39.05961 | -119.01543 | 10455 ft | 270 kts | 124° |
| 2026-05-01 13:42 | 39.04906 | -118.99524 | 10372 ft | 276 kts | 123° |
| 2026-05-01 13:42 | 39.03789 | -118.97532 | 10540 ft | 270 kts | 124° |
| 2026-05-01 13:42 | 39.02770 | -118.95520 | 10613 ft | 270 kts | 118° |
| 2026-05-01 13:43 | 39.01904 | -118.93285 | 10141 ft | 290 kts | 112° |
| 2026-05-01 13:43 | 39.01241 | -118.90752 | 9630 ft | 305 kts | 102° |
| 2026-05-01 13:43 | 39.00691 | -118.88218 | 10140 ft | 279 kts | 111° |
| 2026-05-01 13:43 | 38.99779 | -118.86264 | 10734 ft | 261 kts | 132° |
| 2026-05-01 13:44 | 38.98207 | -118.85023 | 10131 ft | 287 kts | 166° |
| 2026-05-01 13:44 | 38.96061 | -118.84978 | 9164 ft | 320 kts | 182° |
| 2026-05-01 13:44 | 38.94326 | -118.85072 | 8881 ft | 322 kts | 181° |